CheckWX is a tool to help pilots better visualize weather data.  It is not intended as a substitute for an official pre-flight weather briefing.

17:17:35 UTC

GMMB METAR
Ben Slimane Airport
Ben Slimane, Morocco
Current

18 mins ago

GMMB 241700Z 33011KT 290V360 5000 SCT016 SCT200 21/14 Q1016 NOSIG
Observed
May-24 @ 17:00 UTC
Wind
  • 330° at 11 KTS
Visibility
5,005 meters
Flight Rules
MVFR
Cloud Levels
  • Scattered at 1,600' AGL
  • Scattered at 20,000' AGL
Temperature
21°C / 70°F
Dewpoint
14°C / 57°F
Humidity
64%
Altimeter
30" Hg
Pressure
1015.92 hPa
Previous

1 hour ago

GMMB 241600Z 32012KT 290V360 5000 SCT016 SCT200 23/15 Q1016 NOSIG
Observed
May-24 @ 16:00 UTC
Wind
  • 320° at 12 KTS
Visibility
5,005 meters
Flight Rules
MVFR
Cloud Levels
  • Scattered at 1,600' AGL
  • Scattered at 20,000' AGL
Temperature
23°C / 73°F
Dewpoint
15°C / 59°F
Humidity
61%
Altimeter
30" Hg
Pressure
1015.92 hPa
Previous

2 hours ago

GMMB 241500Z 32009KT 280V010 5000 SCT016 FEW200 24/15 Q1016 NOSIG
Observed
May-24 @ 15:00 UTC
Wind
  • 320° at 9 KTS
Visibility
5,005 meters
Flight Rules
MVFR
Cloud Levels
  • Scattered at 1,600' AGL
  • Few at 20,000' AGL
Temperature
24°C / 75°F
Dewpoint
15°C / 59°F
Humidity
57%
Altimeter
30" Hg
Pressure
1015.92 hPa